createdAt,value
2019-02-19T00:29:23.505Z,7.88
2019-02-19T00:30:04.414Z,7.85
2019-02-19T00:30:45.829Z,7.87
2019-02-19T00:31:27.246Z,7.82
2019-02-19T00:32:08.588Z,7.87
2019-02-19T00:32:49.990Z,7.9
2019-02-19T00:33:31.263Z,7.85
2019-02-19T00:34:12.671Z,7.87
2019-02-19T00:34:54.026Z,7.94
2019-02-19T00:35:35.525Z,7.97
2019-02-19T00:36:17.029Z,7.83
2019-02-19T00:36:58.834Z,7.88
2019-02-19T00:37:41.885Z,7.85
2019-02-19T00:38:23.289Z,7.98
2019-02-19T00:39:05.505Z,7.91
2019-02-19T00:39:46.743Z,7.95
2019-02-19T00:40:28.770Z,7.98
2019-02-19T00:41:10.866Z,7.9
2019-02-19T00:41:52.327Z,7.97
2019-02-19T00:42:33.808Z,7.9
2019-02-19T00:43:15.732Z,7.9
2019-02-19T00:43:57.046Z,7.83
2019-02-19T00:44:38.473Z,7.93
2019-02-19T00:45:19.912Z,7.85
2019-02-19T00:46:01.153Z,7.87
2019-02-19T00:46:42.593Z,7.88
2019-02-19T00:47:23.844Z,7.94
2019-02-19T00:48:04.997Z,7.88
2019-02-19T00:48:46.313Z,7.9
2019-02-19T00:49:27.705Z,7.88
2019-02-19T00:50:10.618Z,7.8
2019-02-19T00:50:51.994Z,7.79
2019-02-19T00:51:33.363Z,7.82
2019-02-19T00:52:14.775Z,7.91
2019-02-19T00:52:56.102Z,7.8
2019-02-19T00:53:37.483Z,7.8
2019-02-19T00:54:19.711Z,7.77
2019-02-19T00:55:01.222Z,7.87
2019-02-19T00:55:42.585Z,7.82
2019-02-19T00:56:23.965Z,7.82
2019-02-19T00:57:05.487Z,7.83
2019-02-19T00:57:46.703Z,7.87
2019-02-19T00:58:28.157Z,7.93
2019-02-19T00:59:09.403Z,7.83
2019-02-19T00:59:51.318Z,7.87
2019-02-19T01:00:32.662Z,7.83
2019-02-19T01:01:14.118Z,7.88
2019-02-19T01:01:55.538Z,7.83
2019-02-19T01:02:36.958Z,7.83
2019-02-19T01:03:18.259Z,7.82
2019-02-19T01:03:59.566Z,7.82
2019-02-19T01:04:40.875Z,7.76
2019-02-19T01:05:22.207Z,7.85
2019-02-19T01:06:03.625Z,7.83
2019-02-19T01:06:45.044Z,7.79
2019-02-19T01:07:26.412Z,7.77
2019-02-19T01:08:07.629Z,7.82
2019-02-19T01:08:48.906Z,7.73
2019-02-19T01:09:30.331Z,7.73
2019-02-19T01:10:11.749Z,7.72
2019-02-19T01:10:53.133Z,7.73
2019-02-19T01:11:34.437Z,7.75
2019-02-19T01:12:15.787Z,7.76
2019-02-19T01:12:57.103Z,7.75
2019-02-19T01:13:39.057Z,7.7
2019-02-19T01:14:21.138Z,7.77
2019-02-19T01:15:02.194Z,7.73
2019-02-19T01:15:43.549Z,7.69
2019-02-19T01:16:25.015Z,7.7
2019-02-19T01:17:07.119Z,7.61
2019-02-19T01:17:48.386Z,7.72
2019-02-19T01:18:30.548Z,7.69
2019-02-19T01:19:11.944Z,7.61
2019-02-19T01:19:53.144Z,7.63
2019-02-19T01:20:34.516Z,7.61
2019-02-19T01:21:15.963Z,7.63
2019-02-19T01:21:57.344Z,7.63
2019-02-19T01:22:38.773Z,7.72
2019-02-19T01:23:20.234Z,7.66
2019-02-19T01:24:01.515Z,7.73
2019-02-19T01:24:42.982Z,7.73
2019-02-19T01:25:24.386Z,7.69
2019-02-19T01:26:06.650Z,7.69
2019-02-19T01:26:47.860Z,7.69
2019-02-19T01:27:30.614Z,7.66
2019-02-19T01:28:12.561Z,7.67
2019-02-19T01:28:53.927Z,7.72
2019-02-19T01:29:35.980Z,7.66
2019-02-19T01:30:17.337Z,7.69
2019-02-19T01:30:59.521Z,7.66
2019-02-19T01:31:41.420Z,7.67
2019-02-19T01:32:22.754Z,7.6
2019-02-19T01:33:04.099Z,7.69
2019-02-19T01:33:46.178Z,7.63
2019-02-19T01:34:27.405Z,7.63
2019-02-19T01:35:08.788Z,7.61
2019-02-19T01:35:51.925Z,7.6
2019-02-19T01:36:33.346Z,7.66
2019-02-19T01:37:14.671Z,7.63
2019-02-19T01:37:55.902Z,7.67
2019-02-19T01:38:37.122Z,7.61
2019-02-19T01:39:18.449Z,7.63
2019-02-19T01:39:59.782Z,7.63
2019-02-19T01:40:41.885Z,7.63
2019-02-19T01:41:23.195Z,7.61
2019-02-19T01:42:04.689Z,7.61
2019-02-19T01:42:45.932Z,7.66
2019-02-19T01:43:27.346Z,7.61
2019-02-19T01:44:08.499Z,7.61
2019-02-19T01:44:50.458Z,7.6
2019-02-19T01:45:34.198Z,7.67
2019-02-19T01:46:13.710Z,7.63
2019-02-19T01:46:55.027Z,7.58
2019-02-19T01:47:36.460Z,7.58
2019-02-19T01:48:17.774Z,7.58
2019-02-19T01:48:59.201Z,7.58
2019-02-19T01:49:41.422Z,7.69
2019-02-19T01:50:22.857Z,7.61
2019-02-19T01:51:04.146Z,7.56
2019-02-19T01:51:45.345Z,7.56
2019-02-19T01:52:28.434Z,7.57
2019-02-19T01:53:09.647Z,7.56
2019-02-19T01:53:51.667Z,7.48
2019-02-19T01:54:33.088Z,7.48
2019-02-19T01:55:14.556Z,7.51
2019-02-19T01:55:55.882Z,7.51
2019-02-19T01:56:37.286Z,7.53
2019-02-19T01:57:18.639Z,7.5
2019-02-19T01:58:00.710Z,7.54
2019-02-19T01:58:42.249Z,7.58
2019-02-19T01:59:23.649Z,7.53
2019-02-19T02:00:06.851Z,7.45
2019-02-19T02:00:48.923Z,7.45
2019-02-19T02:01:30.902Z,7.43
2019-02-19T02:02:12.302Z,7.43
2019-02-19T02:02:53.603Z,7.39
2019-02-19T02:03:35.903Z,7.47
2019-02-19T02:04:17.434Z,7.38
2019-02-19T02:04:58.846Z,7.43
2019-02-19T02:05:40.149Z,7.45
2019-02-19T02:06:21.606Z,7.42
2019-02-19T02:07:04.466Z,7.43
2019-02-19T02:07:44.523Z,7.38
2019-02-19T02:08:26.964Z,7.33
2019-02-19T02:09:08.902Z,7.43
2019-02-19T02:09:50.143Z,7.36
2019-02-19T02:10:31.614Z,7.33
2019-02-19T02:11:13.111Z,7.33
2019-02-19T02:11:54.559Z,7.35
2019-02-19T02:12:35.845Z,7.28
2019-02-19T02:13:17.981Z,7.28
2019-02-19T02:13:59.879Z,7.29
2019-02-19T02:14:43.901Z,7.25
2019-02-19T02:15:25.282Z,7.24
2019-02-19T02:16:06.695Z,7.18
2019-02-19T02:16:47.995Z,7.21
2019-02-19T02:17:29.506Z,7.23
2019-02-19T02:18:11.479Z,7.24
2019-02-19T02:18:53.442Z,7.21
2019-02-19T02:19:34.732Z,7.2
2019-02-19T02:20:16.148Z,7.21
2019-02-19T02:20:57.332Z,7.25
2019-02-19T02:21:39.687Z,7.33
2019-02-19T02:22:21.053Z,7.23
2019-02-19T02:23:02.369Z,7.17
2019-02-19T02:23:44.282Z,7.31
2019-02-19T02:24:25.656Z,7.17
2019-02-19T02:25:07.100Z,7.2
2019-02-19T02:25:49.045Z,7.33
2019-02-19T02:26:30.504Z,7.33
2019-02-19T02:27:12.087Z,7.15
2019-02-19T02:27:54.849Z,7.32
2019-02-19T02:28:37.255Z,7.36
2019-02-19T02:29:19.687Z,7.25
2019-02-19T02:30:01.152Z,7.29
2019-02-19T02:30:42.590Z,7.24
2019-02-19T02:31:24.135Z,7.25
2019-02-19T02:32:05.525Z,7.23
2019-02-19T02:32:46.903Z,7.36
2019-02-19T02:33:29.257Z,7.31
2019-02-19T02:34:10.667Z,7.32
2019-02-19T02:34:55.000Z,7.28
2019-02-19T02:35:36.435Z,7.23
2019-02-19T02:36:17.801Z,7.28
2019-02-19T02:37:00.116Z,7.18
2019-02-19T02:37:41.569Z,7.33
2019-02-19T02:38:22.966Z,7.23
2019-02-19T02:39:04.383Z,7.33
2019-02-19T02:39:45.812Z,7.21
2019-02-19T02:40:27.020Z,7.2
2019-02-19T02:41:09.201Z,7.33
2019-02-19T02:41:50.606Z,7.24
2019-02-19T02:42:32.174Z,7.2
2019-02-19T02:43:13.708Z,7.18
2019-02-19T02:43:55.151Z,7.33
2019-02-19T02:44:37.619Z,7.25
2019-02-19T02:45:18.934Z,7.32
2019-02-19T02:46:00.377Z,7.18
2019-02-19T02:46:42.389Z,7.23
2019-02-19T02:47:25.410Z,7.15
2019-02-19T02:48:06.865Z,7.15
2019-02-19T02:48:49.100Z,7.2
2019-02-19T02:49:30.461Z,7.2
2019-02-19T02:50:12.645Z,7.21
2019-02-19T02:50:54.044Z,7.18
2019-02-19T02:51:35.379Z,7.23
2019-02-19T02:52:16.789Z,7.17
2019-02-19T02:52:58.192Z,7.23
2019-02-19T02:53:40.187Z,7.2
2019-02-19T02:54:21.577Z,7.18
2019-02-19T02:55:02.938Z,7.18
2019-02-19T02:55:44.378Z,7.14
2019-02-19T02:56:25.869Z,7.15
2019-02-19T02:57:07.286Z,7.24
2019-02-19T02:57:48.662Z,7.21
2019-02-19T02:58:29.954Z,7.2
2019-02-19T02:59:11.326Z,7.21
2019-02-19T02:59:52.594Z,7.17
2019-02-19T03:00:36.321Z,7.24
2019-02-19T03:01:17.615Z,7.17
2019-02-19T03:01:58.914Z,7.25
2019-02-19T03:02:40.126Z,7.18
2019-02-19T03:03:22.032Z,7.13
2019-02-19T03:04:03.459Z,7.18
2019-02-19T03:04:44.794Z,7.18
2019-02-19T03:05:27.181Z,7.17
2019-02-19T03:06:08.633Z,7.21
2019-02-19T03:06:49.962Z,7.24
2019-02-19T03:07:31.375Z,7.28
2019-02-19T03:08:12.709Z,7.18
2019-02-19T03:08:54.097Z,7.2
2019-02-19T03:09:35.559Z,7.17
2019-02-19T03:10:16.876Z,7.18
2019-02-19T03:10:58.342Z,7.17
2019-02-19T03:11:39.537Z,7.24
2019-02-19T03:12:20.840Z,7.2
2019-02-19T03:13:02.062Z,7.2
2019-02-19T03:13:43.553Z,7.2
2019-02-19T03:14:25.724Z,7.28
2019-02-19T03:15:07.107Z,7.24
2019-02-19T03:15:48.480Z,7.23
2019-02-19T03:16:30.382Z,7.17
2019-02-19T03:17:11.653Z,7.18
2019-02-19T03:17:53.034Z,7.23
2019-02-19T03:18:34.347Z,7.24
2019-02-19T03:19:15.658Z,7.2
2019-02-19T03:19:56.920Z,7.17
2019-02-19T03:20:40.622Z,7.23
2019-02-19T03:21:22.924Z,7.15
2019-02-19T03:22:04.213Z,7.21
2019-02-19T03:22:45.747Z,7.2
2019-02-19T03:23:27.010Z,7.28
2019-02-19T03:24:10.425Z,7.17
2019-02-19T03:24:51.817Z,7.21
2019-02-19T03:25:33.209Z,7.18
2019-02-19T03:26:14.494Z,7.2
2019-02-19T03:26:55.997Z,7.17
2019-02-19T03:27:37.475Z,7.24
2019-02-19T03:28:18.971Z,7.15
2019-02-19T03:29:00.326Z,7.17
2019-02-19T03:29:41.766Z,7.24
2019-02-19T03:30:23.001Z,7.17
2019-02-19T03:31:05.102Z,7.2
2019-02-19T03:31:46.379Z,7.21
2019-02-19T03:32:27.745Z,7.21
2019-02-19T03:33:09.055Z,7.21
2019-02-19T03:33:50.465Z,7.15
2019-02-19T03:34:31.774Z,7.21
2019-02-19T03:35:13.037Z,7.2
2019-02-19T03:35:55.157Z,7.17
2019-02-19T03:36:36.501Z,7.21
2019-02-19T03:37:17.859Z,7.18
2019-02-19T03:37:58.970Z,7.23
2019-02-19T03:38:40.315Z,7.15
2019-02-19T03:39:22.114Z,7.15
2019-02-19T03:40:03.334Z,7.14
2019-02-19T03:40:44.673Z,7.11
2019-02-19T03:41:26.090Z,7.1
2019-02-19T03:42:07.452Z,6.99
2019-02-19T03:42:48.795Z,7.02
2019-02-19T03:43:32.151Z,7.03
2019-02-19T03:44:13.570Z,6.95
2019-02-19T03:44:54.897Z,6.89
2019-02-19T03:45:36.253Z,6.96
2019-02-19T03:46:18.222Z,6.92
2019-02-19T03:46:59.515Z,6.89
2019-02-19T03:47:40.832Z,6.84
2019-02-19T03:48:22.094Z,6.84
2019-02-19T03:49:03.323Z,6.87
2019-02-19T03:49:44.743Z,6.82
2019-02-19T03:50:26.191Z,6.88
2019-02-19T03:51:07.191Z,6.82
2019-02-19T03:51:48.433Z,6.88
2019-02-19T03:52:30.312Z,6.93
2019-02-19T03:53:12.513Z,6.88
2019-02-19T03:53:54.653Z,6.85
2019-02-19T03:54:35.897Z,6.88
2019-02-19T03:55:17.094Z,6.89
2019-02-19T03:55:58.807Z,6.95
2019-02-19T03:56:39.978Z,6.82
2019-02-19T03:57:21.265Z,6.92
2019-02-19T03:58:03.268Z,6.87
2019-02-19T03:58:44.475Z,6.81
2019-02-19T03:59:25.858Z,6.97
2019-02-19T04:00:07.278Z,6.88
2019-02-19T04:00:48.612Z,6.81
2019-02-19T04:01:31.388Z,6.88
2019-02-19T04:02:12.722Z,6.81
2019-02-19T04:02:54.157Z,6.89
2019-02-19T04:03:35.418Z,6.84
2019-02-19T04:04:17.011Z,6.87
2019-02-19T04:04:58.433Z,6.84
2019-02-19T04:05:39.701Z,6.85
2019-02-19T04:06:21.129Z,6.85
2019-02-19T04:07:03.107Z,6.88
2019-02-19T04:07:45.195Z,6.78
2019-02-19T04:08:27.415Z,6.82
2019-02-19T04:09:08.737Z,6.84
2019-02-19T04:09:50.931Z,6.78
2019-02-19T04:10:32.892Z,6.88
2019-02-19T04:11:14.960Z,6.75
2019-02-19T04:11:56.364Z,6.85
2019-02-19T04:12:37.572Z,6.82
2019-02-19T04:13:18.948Z,6.87
2019-02-19T04:14:00.256Z,6.82
2019-02-19T04:14:41.596Z,6.79
2019-02-19T04:15:22.982Z,6.77
2019-02-19T04:16:04.321Z,6.81
2019-02-19T04:16:45.574Z,6.81
2019-02-19T04:17:26.766Z,6.78
2019-02-19T04:18:08.011Z,6.82
2019-02-19T04:18:50.115Z,6.7
2019-02-19T04:19:31.395Z,6.7
2019-02-19T04:20:12.563Z,6.7
2019-02-19T04:20:54.470Z,6.72
2019-02-19T04:21:35.892Z,6.75
2019-02-19T04:22:17.334Z,6.78
2019-02-19T04:22:59.215Z,6.7
2019-02-19T04:23:40.615Z,6.74
2019-02-19T04:24:21.975Z,6.7
2019-02-19T04:25:03.087Z,6.69
2019-02-19T04:25:44.477Z,6.7
2019-02-19T04:26:26.298Z,6.77
2019-02-19T04:27:08.434Z,6.78
2019-02-19T04:27:49.856Z,6.84
2019-02-19T04:28:31.194Z,6.79
2019-02-19T04:29:12.459Z,6.84
2019-02-19T04:29:53.877Z,6.79
2019-02-19T04:30:35.258Z,6.75
2019-02-19T04:31:16.622Z,6.75
2019-02-19T04:31:58.863Z,6.77
2019-02-19T04:32:40.249Z,6.74
2019-02-19T04:33:22.345Z,6.69
2019-02-19T04:34:03.685Z,6.79
2019-02-19T04:34:45.067Z,6.74
2019-02-19T04:35:26.562Z,6.75
2019-02-19T04:36:07.888Z,6.77
2019-02-19T04:36:49.343Z,6.72
2019-02-19T04:37:31.515Z,6.74
2019-02-19T04:38:13.867Z,6.74
2019-02-19T04:38:55.647Z,6.72
2019-02-19T04:39:37.142Z,6.69
2019-02-19T04:40:18.517Z,6.74
2019-02-19T04:40:59.822Z,6.72
2019-02-19T04:41:41.258Z,6.7
2019-02-19T04:42:24.165Z,6.74
2019-02-19T04:43:05.565Z,6.77
2019-02-19T04:43:47.965Z,6.75
2019-02-19T04:44:29.397Z,6.78
2019-02-19T04:45:10.786Z,6.74
2019-02-19T04:45:52.281Z,6.7
2019-02-19T04:46:33.793Z,6.79
2019-02-19T04:47:15.233Z,6.81
2019-02-19T04:47:56.714Z,6.78
2019-02-19T04:48:38.195Z,6.78
2019-02-19T04:49:19.549Z,6.77
2019-02-19T04:50:01.025Z,6.69
2019-02-19T04:50:42.518Z,6.67
2019-02-19T04:51:23.923Z,6.77
2019-02-19T04:52:05.235Z,6.77
2019-02-19T04:52:46.711Z,6.66
2019-02-19T04:53:29.874Z,6.75
2019-02-19T04:54:11.244Z,6.69
2019-02-19T04:54:52.657Z,6.78
2019-02-19T04:55:34.048Z,6.79
2019-02-19T04:56:16.107Z,6.74
2019-02-19T04:56:57.610Z,6.75
2019-02-19T04:57:39.108Z,6.84
2019-02-19T04:58:21.453Z,6.74
2019-02-19T04:59:03.726Z,6.79
2019-02-19T04:59:46.882Z,6.78
2019-02-19T05:00:28.374Z,6.74
2019-02-19T05:01:09.710Z,6.82
2019-02-19T05:01:51.137Z,6.79
2019-02-19T05:02:32.544Z,6.79
2019-02-19T05:03:14.052Z,6.82
2019-02-19T05:03:55.328Z,6.77
2019-02-19T05:04:36.644Z,6.75
2019-02-19T05:05:17.919Z,6.81
2019-02-19T05:05:59.399Z,6.81
2019-02-19T05:06:40.822Z,6.84
2019-02-19T05:07:22.102Z,6.82
2019-02-19T05:08:03.467Z,6.85
2019-02-19T05:08:44.754Z,6.78
2019-02-19T05:09:26.650Z,6.77
2019-02-19T05:10:07.976Z,6.74
2019-02-19T05:10:49.482Z,6.72
2019-02-19T05:11:30.852Z,6.7
2019-02-19T05:12:12.172Z,6.74
2019-02-19T05:12:53.504Z,6.66
2019-02-19T05:13:34.877Z,6.72
2019-02-19T05:14:16.297Z,6.75
2019-02-19T05:14:58.409Z,6.69
2019-02-19T05:15:39.748Z,6.66
2019-02-19T05:16:21.132Z,6.74
2019-02-19T05:17:04.400Z,6.75
2019-02-19T05:17:45.749Z,6.74
2019-02-19T05:18:27.145Z,6.63
2019-02-19T05:19:08.604Z,6.64
2019-02-19T05:19:50.515Z,6.74
2019-02-19T05:20:31.906Z,6.62
2019-02-19T05:21:13.842Z,6.69
2019-02-19T05:21:55.250Z,6.64
2019-02-19T05:22:36.597Z,6.74
2019-02-19T05:23:17.921Z,6.72
2019-02-19T05:23:59.306Z,6.62
2019-02-19T05:24:41.677Z,6.6
2019-02-19T05:25:23.208Z,6.57
2019-02-19T05:26:04.517Z,6.64
2019-02-19T05:26:45.953Z,6.62
2019-02-19T05:27:27.261Z,6.67
2019-02-19T05:28:08.545Z,6.6
2019-02-19T05:28:49.883Z,6.59
2019-02-19T05:29:31.661Z,6.63
2019-02-19T05:30:13.093Z,6.63
2019-02-19T05:30:54.430Z,6.72
2019-02-19T05:31:35.806Z,6.74
2019-02-19T05:32:17.928Z,6.7
2019-02-19T05:32:59.933Z,6.72
2019-02-19T05:33:41.291Z,6.66
2019-02-19T05:34:23.375Z,6.72
2019-02-19T05:35:04.619Z,6.74
2019-02-19T05:35:45.881Z,6.69
2019-02-19T05:36:27.264Z,6.56
2019-02-19T05:37:09.428Z,6.7
2019-02-19T05:37:50.757Z,6.69
2019-02-19T05:38:32.158Z,6.69
2019-02-19T05:39:14.571Z,6.6
2019-02-19T05:39:55.723Z,6.62
2019-02-19T05:40:37.086Z,6.6
2019-02-19T05:41:18.482Z,6.62
2019-02-19T05:41:59.903Z,6.69
2019-02-19T05:42:41.221Z,6.6
2019-02-19T05:43:22.623Z,6.64
2019-02-19T05:44:03.867Z,6.64
2019-02-19T05:44:45.127Z,6.7
2019-02-19T05:45:26.475Z,6.62
2019-02-19T05:46:07.948Z,6.57
2019-02-19T05:46:50.037Z,6.62
2019-02-19T05:47:30.625Z,6.62
2019-02-19T05:48:11.784Z,6.62
2019-02-19T05:48:53.168Z,6.64
2019-02-19T05:49:34.410Z,6.67
2019-02-19T05:50:15.755Z,6.64
2019-02-19T05:50:56.930Z,6.6
2019-02-19T05:51:38.285Z,6.56
2019-02-19T05:52:20.420Z,6.66
2019-02-19T05:53:01.770Z,6.54
2019-02-19T05:53:44.842Z,6.46
2019-02-19T05:54:24.417Z,6.62
2019-02-19T05:55:05.401Z,6.52
2019-02-19T05:55:46.583Z,6.49
2019-02-19T05:56:28.887Z,6.52
2019-02-19T05:57:10.344Z,6.59
2019-02-19T05:57:51.866Z,6.45
2019-02-19T05:58:34.123Z,6.48
2019-02-19T05:59:15.879Z,6.52
2019-02-19T05:59:57.955Z,6.54
2019-02-19T06:00:39.826Z,6.52
2019-02-19T06:01:21.970Z,6.46
2019-02-19T06:02:03.311Z,6.64
2019-02-19T06:02:44.822Z,6.56
2019-02-19T06:03:26.005Z,6.52
2019-02-19T06:04:07.935Z,6.46
2019-02-19T06:04:48.882Z,6.49
2019-02-19T06:05:30.251Z,6.49
2019-02-19T06:06:12.353Z,6.51
2019-02-19T06:06:53.627Z,6.49
2019-02-19T06:07:35.484Z,6.49
2019-02-19T06:08:16.804Z,6.59
2019-02-19T06:08:57.998Z,6.52
2019-02-19T06:09:39.314Z,6.59
2019-02-19T06:10:20.498Z,6.59
2019-02-19T06:11:01.658Z,6.56
2019-02-19T06:11:42.823Z,6.54
2019-02-19T06:12:24.637Z,6.59
2019-02-19T06:13:06.337Z,6.56
2019-02-19T06:13:47.588Z,6.52
2019-02-19T06:14:29.423Z,6.48
2019-02-19T06:15:10.644Z,6.56
2019-02-19T06:15:51.936Z,6.57
2019-02-19T06:16:33.148Z,6.59
2019-02-19T06:17:14.718Z,6.59
2019-02-19T06:17:56.915Z,6.63
2019-02-19T06:18:38.220Z,6.64
2019-02-19T06:19:19.588Z,6.59
2019-02-19T06:20:01.002Z,6.57
2019-02-19T06:20:42.221Z,6.67
2019-02-19T06:21:23.500Z,6.66
2019-02-19T06:22:04.868Z,6.74
2019-02-19T06:22:46.739Z,6.72
2019-02-19T06:23:28.160Z,6.77
2019-02-19T06:24:09.481Z,6.69
2019-02-19T06:24:50.727Z,6.75
2019-02-19T06:25:32.990Z,6.81
2019-02-19T06:26:14.324Z,6.75
2019-02-19T06:26:55.673Z,6.7
2019-02-19T06:27:37.049Z,6.74
2019-02-19T06:28:18.296Z,6.67
2019-02-19T06:28:59.550Z,6.69
2019-02-19T06:29:40.757Z,6.69
2019-02-19T06:30:23.009Z,6.77
2019-02-19T06:31:04.390Z,6.69
2019-02-19T06:31:45.690Z,6.77
2019-02-19T06:32:27.900Z,6.77
2019-02-19T06:33:09.247Z,6.64
2019-02-19T06:33:52.166Z,6.69
2019-02-19T06:34:34.806Z,6.77
2019-02-19T06:35:17.200Z,6.75
2019-02-19T06:36:00.288Z,6.74
2019-02-19T06:36:42.574Z,6.72
2019-02-19T06:37:24.044Z,6.74
2019-02-19T06:38:06.123Z,6.69
2019-02-19T06:38:47.496Z,6.67
2019-02-19T06:39:30.867Z,6.79
2019-02-19T06:40:12.097Z,6.75
2019-02-19T06:40:53.512Z,6.69
2019-02-19T06:41:35.285Z,6.72
2019-02-19T06:42:17.418Z,6.69
2019-02-19T06:42:59.557Z,6.75
2019-02-19T06:43:40.969Z,6.72
2019-02-19T06:44:22.314Z,6.72
2019-02-19T06:45:03.689Z,6.72
2019-02-19T06:45:45.005Z,6.72
2019-02-19T06:46:27.350Z,6.67
2019-02-19T06:47:08.637Z,6.72
2019-02-19T06:47:49.994Z,6.69
2019-02-19T06:48:31.308Z,6.79
2019-02-19T06:49:13.510Z,6.75
2019-02-19T06:49:54.920Z,6.7
2019-02-19T06:50:37.090Z,6.66
2019-02-19T06:51:18.959Z,6.69
2019-02-19T06:52:00.194Z,6.74
2019-02-19T06:52:41.488Z,6.81
2019-02-19T06:53:22.759Z,6.78
2019-02-19T06:54:03.805Z,6.79
2019-02-19T06:54:44.554Z,6.81
2019-02-19T06:55:26.035Z,6.95
2019-02-19T06:56:07.538Z,6.92
2019-02-19T06:56:48.850Z,6.88
2019-02-19T06:57:30.082Z,6.82
2019-02-19T06:58:10.870Z,6.82
2019-02-19T06:58:51.985Z,6.84
2019-02-19T06:59:33.135Z,6.85
2019-02-19T07:00:14.149Z,6.81
2019-02-19T07:00:56.362Z,6.85
2019-02-19T07:01:37.488Z,6.82
2019-02-19T07:02:19.328Z,6.95
2019-02-19T07:03:00.308Z,6.87
2019-02-19T07:03:41.965Z,6.87
2019-02-19T07:04:23.061Z,6.92
2019-02-19T07:05:04.268Z,6.95
2019-02-19T07:05:46.358Z,7
2019-02-19T07:06:27.691Z,7
2019-02-19T07:07:08.674Z,7.02
2019-02-19T07:07:49.874Z,6.96
2019-02-19T07:08:30.902Z,7.05
2019-02-19T07:09:12.007Z,7.17
2019-02-19T07:09:53.929Z,7.36
2019-02-19T07:10:35.857Z,7.56
2019-02-19T07:11:17.218Z,7.79
2019-02-19T07:11:58.936Z,8.09
2019-02-19T07:12:39.882Z,8.23
2019-02-19T07:13:21.196Z,8.34
2019-02-19T07:14:05.435Z,8.46
2019-02-19T07:14:46.641Z,8.78
2019-02-19T07:15:27.893Z,8.92
2019-02-19T07:16:09.326Z,9.1
2019-02-19T07:16:50.671Z,9.19
2019-02-19T07:17:32.026Z,9.37
2019-02-19T07:18:13.383Z,9.54
2019-02-19T07:18:54.615Z,9.64
2019-02-19T07:19:35.956Z,9.73
2019-02-19T07:20:18.313Z,9.76
2019-02-19T07:21:00.656Z,9.89
2019-02-19T07:21:42.009Z,9.98
2019-02-19T07:22:23.369Z,9.92
2019-02-19T07:23:04.607Z,9.99
2019-02-19T07:23:46.567Z,9.97
2019-02-19T07:24:28.727Z,10.05
2019-02-19T07:25:10.120Z,10.12
2019-02-19T07:25:52.408Z,10.13
2019-02-19T07:26:34.284Z,10.13
2019-02-19T07:27:15.620Z,10.12
2019-02-19T07:27:57.442Z,10.12
2019-02-19T07:28:38.844Z,10.13
2019-02-19T07:29:20.235Z,10.13
2019-02-19T07:30:01.580Z,10.23
2019-02-19T07:30:42.887Z,10.22
2019-02-19T07:31:24.092Z,10.3
2019-02-19T07:32:05.647Z,10.37
2019-02-19T07:32:47.151Z,10.28
2019-02-19T07:33:28.373Z,10.25
2019-02-19T07:34:10.178Z,10.3
2019-02-19T07:34:51.184Z,10.31
2019-02-19T07:35:31.963Z,10.37
2019-02-19T07:36:13.200Z,10.57
2019-02-19T07:36:54.389Z,10.53
2019-02-19T07:37:35.576Z,10.42
2019-02-19T07:38:16.769Z,10.63
2019-02-19T07:38:57.972Z,10.64
2019-02-19T07:39:39.261Z,10.69
2019-02-19T07:40:20.422Z,10.81
2019-02-19T07:41:01.680Z,10.72
2019-02-19T07:41:42.800Z,10.84
2019-02-19T07:42:23.964Z,10.84
2019-02-19T07:43:04.950Z,10.87
2019-02-19T07:43:46.000Z,10.86
2019-02-19T07:44:27.023Z,10.82
2019-02-19T07:45:08.287Z,10.87
2019-02-19T07:45:49.357Z,10.94
2019-02-19T07:46:30.588Z,10.89
2019-02-19T07:47:11.753Z,10.93
2019-02-19T07:47:53.031Z,10.9
2019-02-19T07:48:34.164Z,11.04
2019-02-19T07:49:15.898Z,10.96
2019-02-19T07:49:57.655Z,10.9
2019-02-19T07:50:39.047Z,10.96
2019-02-19T07:51:20.904Z,11.1
2019-02-19T07:52:02.285Z,11.04
2019-02-19T07:52:44.486Z,11.07
2019-02-19T07:53:26.761Z,11.18
2019-02-19T07:54:08.307Z,11.05
2019-02-19T07:54:49.756Z,11.18
2019-02-19T07:55:32.945Z,11.12
2019-02-19T07:56:13.443Z,11.08
2019-02-19T07:56:54.801Z,11.12
2019-02-19T07:57:36.021Z,11.04
2019-02-19T07:58:17.365Z,11.08
2019-02-19T07:58:58.629Z,11.07
2019-02-19T07:59:40.251Z,11.04
2019-02-19T08:00:23.005Z,11.04
2019-02-19T08:01:06.675Z,11.07
2019-02-19T08:01:47.393Z,11.15
2019-02-19T08:02:29.372Z,11
2019-02-19T08:03:10.765Z,11.11
2019-02-19T08:03:51.984Z,11.22
2019-02-19T08:04:33.383Z,11.25
2019-02-19T08:05:14.744Z,11.22
2019-02-19T08:05:56.141Z,11.33
2019-02-19T08:06:37.308Z,11.29
2019-02-19T08:07:18.575Z,11.41
2019-02-19T08:07:59.667Z,11.33
2019-02-19T08:08:41.193Z,11.4
2019-02-19T08:09:23.056Z,11.44
2019-02-19T08:10:04.192Z,11.45
2019-02-19T08:10:45.418Z,11.4
2019-02-19T08:11:26.542Z,11.36
2019-02-19T08:12:07.467Z,11.43
2019-02-19T08:12:48.471Z,11.44
2019-02-19T08:13:30.687Z,11.48
2019-02-19T08:14:11.988Z,11.33
2019-02-19T08:14:53.128Z,11.43
2019-02-19T08:15:34.326Z,11.41
2019-02-19T08:16:15.379Z,11.37
2019-02-19T08:16:56.567Z,11.37
2019-02-19T08:17:37.594Z,11.36
2019-02-19T08:18:18.821Z,11.48
2019-02-19T08:19:00.016Z,11.51
2019-02-19T08:19:40.925Z,11.54
2019-02-19T08:20:22.334Z,11.57
2019-02-19T08:21:03.569Z,11.6
2019-02-19T08:21:44.978Z,11.62
2019-02-19T08:22:26.936Z,11.63
2019-02-19T08:23:08.041Z,11.72
2019-02-19T08:23:49.309Z,11.63
2019-02-19T08:24:30.391Z,11.65
2019-02-19T08:25:11.672Z,11.78
2019-02-19T08:25:53.205Z,11.69
2019-02-19T08:26:34.542Z,11.73
2019-02-19T08:27:15.636Z,11.77
2019-02-19T08:27:56.871Z,11.77
2019-02-19T08:28:38.963Z,11.78
2019-02-19T08:29:20.158Z,11.75
2019-02-19T08:30:01.071Z,11.63
2019-02-19T08:30:42.235Z,11.55
2019-02-19T08:31:23.539Z,11.4
2019-02-19T08:32:04.713Z,11.3
2019-02-19T08:32:45.844Z,11.07
2019-02-19T08:33:26.866Z,10.96
2019-02-19T08:34:07.959Z,10.89
2019-02-19T08:34:49.074Z,10.87
2019-02-19T08:35:30.180Z,10.79
2019-02-19T08:36:11.291Z,10.72
2019-02-19T08:36:52.351Z,10.54
2019-02-19T08:37:34.739Z,10.53
2019-02-19T08:38:15.004Z,10.51
2019-02-19T08:38:57.221Z,10.51
2019-02-19T08:39:37.472Z,10.33
2019-02-19T08:40:18.612Z,10.3
2019-02-19T08:40:59.799Z,10.23
2019-02-19T08:41:40.889Z,10.25
2019-02-19T08:42:22.084Z,10.17
2019-02-19T08:43:03.233Z,10.09
2019-02-19T08:43:44.335Z,10.12
2019-02-19T08:44:26.423Z,10.05
2019-02-19T08:45:07.331Z,9.94
2019-02-19T08:45:48.454Z,9.97
2019-02-19T08:46:29.595Z,10.01
2019-02-19T08:47:12.848Z,9.8
2019-02-19T08:47:52.255Z,9.84
2019-02-19T08:48:33.235Z,9.76
2019-02-19T08:49:14.461Z,9.72
2019-02-19T08:49:55.724Z,9.74
2019-02-19T08:50:36.615Z,9.82
2019-02-19T08:51:18.469Z,9.66
2019-02-19T08:51:59.728Z,9.64
2019-02-19T08:52:40.831Z,9.65
2019-02-19T08:53:22.474Z,9.65
2019-02-19T08:54:03.696Z,9.5
2019-02-19T08:54:44.950Z,9.48
2019-02-19T08:55:26.481Z,9.54
2019-02-19T08:56:07.583Z,9.44
2019-02-19T08:56:48.564Z,9.47
2019-02-19T08:57:29.778Z,9.44
2019-02-19T08:58:11.035Z,9.36
2019-02-19T08:58:52.134Z,9.41
2019-02-19T08:59:33.425Z,9.46
2019-02-19T09:00:14.662Z,9.4
2019-02-19T09:00:55.909Z,9.36
2019-02-19T09:01:36.903Z,9.36
2019-02-19T09:02:18.869Z,9.4
2019-02-19T09:03:00.424Z,9.44
2019-02-19T09:03:41.550Z,9.5
2019-02-19T09:04:22.823Z,9.36
2019-02-19T09:05:04.506Z,9.47
2019-02-19T09:05:45.882Z,9.48
2019-02-19T09:06:27.649Z,9.47
2019-02-19T09:07:08.301Z,9.56
2019-02-19T09:07:49.413Z,9.56
2019-02-19T09:08:30.316Z,9.61
2019-02-19T09:09:11.295Z,9.68
2019-02-19T09:09:52.299Z,9.72
2019-02-19T09:10:33.545Z,9.76
2019-02-19T09:11:14.805Z,9.77
2019-02-19T09:11:55.740Z,9.74
2019-02-19T09:12:36.808Z,9.73
2019-02-19T09:13:17.868Z,9.79
2019-02-19T09:13:58.757Z,9.69
2019-02-19T09:14:39.811Z,9.66
2019-02-19T09:15:21.051Z,9.77
2019-02-19T09:16:02.112Z,9.68
2019-02-19T09:16:44.327Z,9.73
2019-02-19T09:17:25.521Z,9.74
2019-02-19T09:18:06.690Z,9.73
2019-02-19T09:18:47.602Z,9.74
2019-02-19T09:19:28.647Z,9.74
2019-02-19T09:20:09.853Z,9.79
2019-02-19T09:20:51.409Z,9.69
2019-02-19T09:21:32.764Z,9.72
2019-02-19T09:22:13.955Z,9.73
2019-02-19T09:22:55.107Z,9.73
2019-02-19T09:23:36.208Z,9.74
2019-02-19T09:24:17.093Z,9.73
2019-02-19T09:24:59.417Z,9.72
2019-02-19T09:25:40.671Z,9.72
2019-02-19T09:26:21.970Z,9.74
2019-02-19T09:27:03.010Z,9.73
2019-02-19T09:27:44.016Z,9.74
2019-02-19T09:28:25.059Z,9.69
2019-02-19T09:29:05.970Z,9.76
2019-02-19T09:29:47.579Z,9.68
2019-02-19T09:30:28.241Z,9.73
2019-02-19T09:31:09.439Z,9.73
2019-02-19T09:31:50.623Z,9.74
2019-02-19T09:32:31.748Z,9.73
2019-02-19T09:33:13.447Z,9.69
2019-02-19T09:33:54.631Z,9.79
2019-02-19T09:34:35.760Z,9.62
2019-02-19T09:35:16.942Z,9.79
2019-02-19T09:35:58.087Z,9.74
2019-02-19T09:36:39.483Z,9.74
2019-02-19T09:37:20.703Z,9.69
2019-02-19T09:38:02.114Z,9.73
2019-02-19T09:38:43.281Z,9.74
2019-02-19T09:39:24.360Z,9.73
2019-02-19T09:40:06.640Z,9.73
2019-02-19T09:40:47.930Z,9.69